ADDS METAR Data INFO
IDs: Format: Raw Decoded Include TAF

Data at: 0921 UTC 13 Dec 2017

KBGD 130851Z AUTO 23010KT 10SM CLR 06/M13 A3004 RMK AO2 SLP159 T00561128 56019
KBGD 130751Z AUTO 23008KT 10SM CLR 06/M12 A3005 RMK AO2 SLP165 T00561122
KBGD 130651Z AUTO 24010KT 10SM CLR 07/M12 A3007 RMK AO2 SLP171 T00721122
KBGD 130551Z AUTO 24012KT 10SM CLR 08/M12 A3010 RMK AO2 SLP184 T00781122 10128 20078 401671033 58015
KBGD 130451Z AUTO 24010KT 10SM CLR 09/M12 A3011 RMK AO2 SLP191 T00891117
KBGD 130351Z AUTO 24011KT 10SM CLR 09/M12 A3014 RMK AO2 SLP205 T00891117
KBGD 130251Z AUTO 23011KT 10SM CLR 10/M12 A3015 RMK AO2 SLP213 T01001122 58014
KBGD 130151Z AUTO 23012KT 10SM CLR 11/M12 A3017 RMK AO2 SLP219 T01111122
KBGD 130051Z AUTO 23009KT 10SM CLR 12/M12 A3018 RMK AO2 SLP222 T01171122
KBGD 122351Z AUTO 23007KT 10SM CLR 13/M12 A3019 RMK AO2 SLP225 T01281117 10167 20111 56019
KBGD 122251Z AUTO 26009KT 10SM CLR 16/M12 A3021 RMK AO2 SLP226 T01611122
KBGD 122151Z AUTO 26011G18KT 10SM CLR 17/M12 A3022 RMK AO2 SLP228 T01671122
KBGD 122051Z AUTO 26015G24KT 10SM CLR 16/M13 A3025 RMK AO2 SLP237 T01611128 56046
KBGD 121951Z AUTO 25013KT 10SM CLR 16/M12 A3029 RMK AO2 SLP250 T01561122
KBGD 121851Z AUTO 26012KT 10SM CLR 13/M12 A3035 RMK AO2 SLP272 T01331117
KBGD 121751Z AUTO 25011KT 10SM CLR 11/M11 A3040 RMK AO2 SLP291 T01061106 10106 21033 58016
KBGD 121651Z AUTO 25011KT 10SM CLR 08/M09 A3044 RMK AO2 SLP305 T00781094
KBGD 121551Z AUTO 26007KT 10SM CLR 03/M09 A3045 RMK AO2 SLP313 T00281094
KBGD 121451Z AUTO 25005KT 10SM CLR M01/M10 A3045 RMK AO2 SLP319 T10111100 58003
KBGD 121351Z AUTO 24006KT 10SM CLR M03/M10 A3046 RMK AO2 SLP321 T10281100
KBGD 121251Z AUTO 25007KT 10SM CLR M03/M10 A3046 RMK AO2 SLP320 T10281100
KBGD 121151Z AUTO 27004KT 10SM CLR M02/M10 A3046 RMK AO2 SLP318 T10221100 10056 21022 55002
KBGD 121051Z AUTO 26005KT 10SM CLR M01/M10 A3046 RMK AO2 SLP311 T10061100
KBGD 120951Z AUTO 00000KT 10SM CLR 01/M09 A3047 RMK AO2 SLP311 T00111094
KBGD 120851Z AUTO 03004KT 10SM CLR 02/M09 A3047 RMK AO2 SLP310 T00221094 52007
KBGD 120751Z AUTO 36008KT 10SM CLR 03/M11 A3046 RMK AO2 SLP306 T00281111
KBGD 120651Z AUTO 04007KT 10SM CLR 04/M12 A3046 RMK AO2 SLP304 T00391122
KBGD 120551Z AUTO 03008KT 10SM CLR 06/M13 A3045 RMK AO2 SLP303 T00561128 10144 20056 401831017 51021
KBGD 120451Z AUTO 01011KT 10SM CLR 08/M13 A3042 RMK AO2 SLP298 T00781128
KBGD 120351Z AUTO 01014KT 10SM CLR 09/M13 A3040 RMK AO2 SLP295 T00941128
KBGD 120251Z AUTO 01007KT 330V030 10SM CLR 08/M11 A3038 RMK AO2 SLP292 T00831111 53028
KBGD 120151Z AUTO 36005KT 10SM CLR 11/M11 A3035 RMK AO2 SLP281 T01111106
KBGD 120051Z AUTO 35003KT 10SM CLR 12/M11 A3032 RMK AO2 SLP265 T01171106
KBGD 112351Z AUTO 35004KT 10SM CLR 14/M11 A3029 RMK AO2 SLP252 T01441111 10183 20133 53017
KBGD 112251Z AUTO 02012KT 10SM CLR 17/M11 A3026 RMK AO2 SLP243 T01671106
KBGD 112151Z AUTO 02011KT 10SM CLR 18/M11 A3024 RMK AO2 SLP234 T01831111